Estación Meteorológica Peña el Pijo (Robertgarden) [ 04/19/21 04:41:36 CEST ]

Fecha Hora Presion(HPa) Temp (°C) Humedad % Rocio (°C) Viento ( m/s) Direccion Lluvia 1Hora(mm) Lluvia 24H(mm) LLuvia Total(mm)
2021-Apr-09 01:09:21 1009.400 7.2 85 4.8 - N     89.61
2021-Apr-09 02:09:52 1009.600 6.8 86 4.6 - N     89.61
2021-Apr-09 03:09:38 1008.800 6.7 85 4.3 - N     89.61
2021-Apr-09 04:09:35 1007.800 6.9 77 3.1 - N     89.61
2021-Apr-09 05:09:42 1007.700 6.3 84 3.8 - N     89.61
2021-Apr-09 06:09:46 1007.200 5.8 90 4.3 - N     89.61
2021-Apr-09 07:09:49 1006.800 5.4 92 4.2 - N     89.61
2021-Apr-09 08:09:17 1007.300 5.3 93 4.2 - N     89.61
2021-Apr-09 09:09:37 1007.600 5.3 93 4.2 - N     89.61
2021-Apr-09 10:09:37 1008.000 6.3 91 4.9 - N     89.61
2021-Apr-09 11:09:24 1008.300 8.3 86 6.1 - N     89.61
2021-Apr-09 12:09:26 1007.900 16.4 56 7.6 - N     89.61
2021-Apr-09 13:09:23 1007.300 17.5 54 8.0 - N     89.61
2021-Apr-09 14:09:21 1007.600 12.9 64 6.2 - N     89.61
2021-Apr-09 15:09:10 1006.700 16.9 58 8.6 - N     89.61
2021-Apr-09 16:09:23 1006.000 16.3 58 7.9 - N     89.61
2021-Apr-09 17:09:17 1005.800 15.9 60 8.4 - N     89.61
2021-Apr-09 18:09:06 1005.500 15.7 63 8.6 - N     89.61
2021-Apr-09 19:09:35 1005.600 13.9 68 8.1 - N     89.61
2021-Apr-09 20:09:55 1005.700 12.7 72 7.8 - N     89.61
2021-Apr-09 21:09:33 1006.000 10.9 78 7.2 - N     89.61
2021-Apr-09 22:09:53 1006.200 9.4 83 6.6 - N     89.61
2021-Apr-09 23:09:46 1006.500 8.8 85 6.4 - N     89.61

Temperatura Máxima:17°    Temperatura Mínima:
Presión Máxima:1009.600 Hpa    Presión Mínima:1005.500 Hpa


Volver